Time;durP1;ratioP1;P1;durP2;ratioP2;P2;SDS_P1;SDS_P2;PMS_P1;PMS_P2;Temp;Humidity;BMP_temperature;BMP_pressure;BME280_temperature;BME280_humidity;BME280_pressure;Samples;Min_cycle;Max_cycle;Signal;HPM_P1;HPM_P2
2021/10/01 00:01:41;;;;;;;;;;;;;;;21.68;31.63;98881.81;4869966;29;908;-80
2021/10/01 00:04:07;;;;;;;;;;;;;;;21.93;31.41;98886.34;4870070;29;1970;-79
2021/10/01 00:06:32;;;;;;;;;;;;;;;21.85;31.42;98879.94;4870512;29;617;-80
2021/10/01 00:08:58;;;;;;;;;;;;;;;21.80;31.33;98884.06;4870132;29;677;-80
2021/10/01 00:11:23;;;;;;;;;;;;;;;21.61;31.51;98886.78;4869879;29;914;-80
2021/10/01 00:13:48;;;;;;;;;;;;;;;22.11;31.83;98884.06;4869664;29;1003;-79
2021/10/01 00:16:14;;;;;;;;;;;;;;;22.38;32.34;98883.25;4869056;29;981;-79
2021/10/01 00:18:40;;;;;;;;;;;;;;;22.53;32.19;98890.31;4869325;29;715;-80
2021/10/01 00:21:05;;;;;;;;;;;;;;;22.44;32.25;98890.88;4869827;29;665;-79
2021/10/01 00:23:31;;;;;;;;;;;;;;;22.15;32.08;98893.31;4868877;29;1900;-79
2021/10/01 00:25:57;;;;;;;;;;;;;;;22.14;32.17;98905.91;4869636;29;1000;-79
2021/10/01 00:28:22;;;;;;;;;;;;;;;21.99;32.20;98895.97;4868434;29;936;-79
2021/10/01 00:30:47;;;;;;;;;;;;;;;21.91;32.57;98883.09;4869737;29;906;-80
2021/10/01 00:33:13;;;;;;;;;;;;;;;21.92;32.43;98893.25;4868466;29;766;-80
2021/10/01 00:35:38;;;;;;;;;;;;;;;21.78;32.59;98892.19;4869228;29;668;-80
2021/10/01 00:38:04;;;;;;;;;;;;;;;21.86;32.34;98898.56;4869257;29;732;-79
2021/10/01 00:40:29;;;;;;;;;;;;;;;21.81;32.11;98891.34;4867954;29;956;-80
2021/10/01 00:42:55;;;;;;;;;;;;;;;21.89;31.91;98891.25;4869007;29;932;-79
2021/10/01 00:45:20;;;;;;;;;;;;;;;21.78;32.31;98886.53;4868237;29;1911;-80
2021/10/01 00:47:46;;;;;;;;;;;;;;;21.81;32.20;98891.34;4869640;29;761;-79
2021/10/01 00:50:11;;;;;;;;;;;;;;;21.78;32.03;98880.84;4868382;29;692;-80
2021/10/01 00:52:37;;;;;;;;;;;;;;;21.80;32.03;98886.88;4869094;29;592;-80
2021/10/01 00:55:03;;;;;;;;;;;;;;;21.76;31.86;98889.00;4868067;29;829;-80
2021/10/01 00:57:28;;;;;;;;;;;;;;;21.79;31.98;98885.28;4868452;29;1804;-79
2021/10/01 00:59:55;;;;;;;;;;;;;;;21.78;32.02;98892.19;4868682;29;990;-80
2021/10/01 01:02:20;;;;;;;;;;;;;;;21.79;31.78;98882.47;4867605;29;963;-79
2021/10/01 01:04:46;;;;;;;;;;;;;;;21.78;31.84;98874.41;4851895;29;1954;-79
2021/10/01 01:07:27;;;;;;;;;;;;;;;21.82;31.36;98881.63;4867983;29;798;-80
2021/10/01 01:10:02;;;;;;;;;;;;;;;21.84;31.35;98879.16;4867849;29;792;-79
2021/10/01 01:12:43;;;;;;;;;;;;;;;21.78;31.11;98885.72;4853267;29;1364;-79
2021/10/01 01:15:12;;;;;;;;;;;;;;;21.91;31.21;98886.75;4883544;29;1303;-79
2021/10/01 01:17:42;;;;;;;;;;;;;;;22.20;31.82;98890.00;4883514;29;1175;-79
2021/10/01 01:20:18;;;;;;;;;;;;;;;22.33;32.33;98888.19;4868185;29;1185;-78
2021/10/01 01:23:04;;;;;;;;;;;;;;;22.50;32.09;98885.50;4868410;29;1297;-80
2021/10/01 01:26:08;;;;;;;;;;;;;;;22.14;32.21;98880.38;4868490;29;1911;-79
2021/10/01 01:28:34;;;;;;;;;;;;;;;21.97;32.29;98887.09;4849032;29;1203;-80
2021/10/01 01:31:01;;;;;;;;;;;;;;;21.88;32.29;98890.44;4833195;29;1144;-80
2021/10/01 01:33:27;;;;;;;;;;;;;;;21.90;32.41;98887.19;4857760;29;1138;-79
2021/10/01 01:35:53;;;;;;;;;;;;;;;21.91;32.00;98888.78;4852191;29;1136;-80
2021/10/01 01:38:31;;;;;;;;;;;;;;;21.98;31.95;98883.81;4852355;29;1387;-80
2021/10/01 01:40:57;;;;;;;;;;;;;;;21.90;32.07;98882.31;4867571;29;1328;-80
2021/10/01 01:43:23;;;;;;;;;;;;;;;21.87;32.22;98888.03;4867648;29;1970;-79
2021/10/01 01:45:48;;;;;;;;;;;;;;;21.82;31.90;98883.66;4852486;29;796;-79
2021/10/01 01:48:14;;;;;;;;;;;;;;;21.87;32.16;98883.19;4866792;29;831;-80
2021/10/01 01:50:41;;;;;;;;;;;;;;;21.88;31.73;98884.78;4851030;29;1334;-79
2021/10/01 01:53:07;;;;;;;;;;;;;;;21.82;31.84;98881.63;4852190;29;1272;-80
2021/10/01 01:55:33;;;;;;;;;;;;;;;21.96;31.56;98879.81;4852287;29;1159;-80
2021/10/01 01:57:59;;;;;;;;;;;;;;;21.89;31.79;98877.06;4852371;29;1258;-80
2021/10/01 02:00:46;;;;;;;;;;;;;;;21.89;31.43;98879.91;4848094;29;1111;-80
2021/10/01 02:03:11;;;;;;;;;;;;;;;21.89;31.29;98886.38;4867186;29;1300;-80
2021/10/01 02:05:40;;;;;;;;;;;;;;;21.95;31.50;98881.03;4852030;29;1227;-79
2021/10/01 02:08:05;;;;;;;;;;;;;;;21.77;31.35;98878.47;4867867;29;617;-79
2021/10/01 02:10:32;;;;;;;;;;;;;;;21.78;31.31;98880.84;4867217;29;1144;-79
2021/10/01 02:12:58;;;;;;;;;;;;;;;22.01;32.00;98882.16;4867118;29;660;-80
2021/10/01 02:15:24;;;;;;;;;;;;;;;22.19;32.22;98890.44;4851618;29;1409;-79
2021/10/01 02:17:50;;;;;;;;;;;;;;;22.38;32.28;98888.91;4866399;29;1007;-80
2021/10/01 02:20:16;;;;;;;;;;;;;;;22.43;31.99;98879.94;4867067;29;1144;-79
2021/10/01 02:22:42;;;;;;;;;;;;;;;22.20;32.08;98890.00;4851913;29;1165;-80
2021/10/01 02:26:33;;;;;;;;;;;;;;;22.04;32.05;98887.78;4851724;29;1953;-80
2021/10/01 02:27:53;;;;;;;;;;;;;;;22.00;31.79;98880.56;4867068;29;656;-80
2021/10/01 02:30:19;;;;;;;;;;;;;;;21.96;32.10;98876.97;4851665;29;1214;-80
2021/10/01 02:32:47;;;;;;;;;;;;;;;21.73;32.51;98878.50;4851527;29;1313;-79
2021/10/01 02:35:13;;;;;;;;;;;;;;;21.92;32.14;98884.75;4881989;29;1238;-80
2021/10/01 02:37:38;;;;;;;;;;;;;;;21.85;32.15;98886.41;4867071;29;1323;-79
2021/10/01 02:40:06;;;;;;;;;;;;;;;21.83;32.21;98885.25;4851095;29;1273;-79
2021/10/01 02:42:31;;;;;;;;;;;;;;;21.76;32.03;98883.31;4867769;29;605;-79
2021/10/01 02:44:57;;;;;;;;;;;;;;;21.97;31.80;98875.75;4866558;29;1907;-80
2021/10/01 02:47:27;;;;;;;;;;;;;;;21.91;31.54;98878.25;4866130;29;956;-79
2021/10/01 02:49:52;;;;;;;;;;;;;;;21.67;31.81;98883.03;4867123;29;939;-79
2021/10/01 02:52:18;;;;;;;;;;;;;;;21.81;31.68;98885.69;4867272;29;817;-79
2021/10/01 02:54:45;;;;;;;;;;;;;;;21.72;31.38;98885.41;4882337;29;1170;-79
2021/10/01 02:57:11;;;;;;;;;;;;;;;21.87;31.61;98888.03;4851371;29;1347;-80
2021/10/01 02:59:38;;;;;;;;;;;;;;;22.20;31.73;98898.50;4866328;29;919;-80
2021/10/01 03:02:03;;;;;;;;;;;;;;;22.42;31.79;98889.69;4867853;29;888;-80
2021/10/01 03:04:29;;;;;;;;;;;;;;;22.58;31.53;98892.66;4869833;29;1970;-80
2021/10/01 03:06:54;;;;;;;;;;;;;;;22.26;31.48;98893.97;4854481;29;1131;-80
2021/10/01 03:09:20;;;;;;;;;;;;;;;22.12;31.67;98897.00;4870270;29;1158;-80
2021/10/01 03:11:46;;;;;;;;;;;;;;;22.10;31.59;98896.59;4870063;29;1175;-80
2021/10/01 03:14:11;;;;;;;;;;;;;;;21.90;32.08;98893.66;4869205;29;1262;-79
2021/10/01 03:16:37;;;;;;;;;;;;;;;21.85;31.80;98892.09;4869939;29;1270;-79
2021/10/01 03:19:04;;;;;;;;;;;;;;;21.94;31.82;98900.06;4855107;29;1282;-79
2021/10/01 03:21:29;;;;;;;;;;;;;;;21.76;32.03;98889.00;4854531;29;1297;-79
2021/10/01 03:23:55;;;;;;;;;;;;;;;21.73;31.77;98889.81;4854522;29;1951;-78
2021/10/01 03:26:24;;;;;;;;;;;;;;;21.73;31.88;98895.50;4854605;29;1000;-79
2021/10/01 03:28:50;;;;;;;;;;;;;;;21.79;31.72;98899.47;4853929;29;1366;-79
2021/10/01 03:31:16;;;;;;;;;;;;;;;21.83;31.25;98888.09;4854336;29;1328;-79
2021/10/01 03:33:43;;;;;;;;;;;;;;;21.84;31.42;98895.34;4854166;29;1330;-80
2021/10/01 03:36:09;;;;;;;;;;;;;;;21.62;31.54;98889.16;4869322;29;800;-79
2021/10/01 03:38:37;;;;;;;;;;;;;;;22.12;32.09;98888.50;4869461;29;984;-79
2021/10/01 03:41:05;;;;;;;;;;;;;;;22.29;31.70;98887.44;4884700;29;1135;-80
2021/10/01 03:43:30;;;;;;;;;;;;;;;22.56;31.26;98889.44;4869309;29;1903;-80
2021/10/01 03:45:59;;;;;;;;;;;;;;;22.22;31.47;98892.41;4854135;29;1336;-80
2021/10/01 03:48:25;;;;;;;;;;;;;;;21.93;31.70;98897.66;4854772;29;1215;-80
2021/10/01 03:51:09;;;;;;;;;;;;;;;21.90;31.68;98895.69;4871928;29;1183;-80
2021/10/01 03:53:37;;;;;;;;;;;;;;;21.78;32.13;98891.38;4869647;29;1190;-80
2021/10/01 03:56:03;;;;;;;;;;;;;;;21.77;31.98;98890.59;4869269;29;1267;-80
2021/10/01 03:58:28;;;;;;;;;;;;;;;21.81;31.76;98894.19;4869029;29;1194;-80
2021/10/01 04:00:56;;;;;;;;;;;;;;;21.95;31.74;98901.66;4869259;29;1258;-80
2021/10/01 04:03:22;;;;;;;;;;;;;;;21.79;31.48;98893.00;4869268;29;1899;-80
2021/10/01 04:05:53;;;;;;;;;;;;;;;21.77;31.69;98896.25;4869285;29;1253;-79
2021/10/01 04:08:21;;;;;;;;;;;;;;;21.78;31.83;98892.19;4868969;29;1169;-79
2021/10/01 04:10:48;;;;;;;;;;;;;;;21.77;31.55;98901.91;4869347;29;1458;-79
2021/10/01 04:13:13;;;;;;;;;;;;;;;21.87;31.33;98899.38;4868188;29;1273;-80
2021/10/01 04:15:46;;;;;;;;;;;;;;;21.75;31.40;98893.03;4868890;29;1321;-79
2021/10/01 04:18:12;;;;;;;;;;;;;;;22.03;31.98;98903.19;4869300;29;1199;-80
2021/10/01 04:20:41;;;;;;;;;;;;;;;22.35;31.65;98901.94;4869456;29;1309;-80
2021/10/01 04:23:06;;;;;;;;;;;;;;;22.45;31.21;98900.19;4869620;29;685;-79
2021/10/01 04:25:50;;;;;;;;;;;;;;;22.11;31.37;98912.41;4870076;29;649;-79
2021/10/01 04:28:17;;;;;;;;;;;;;;;22.06;31.30;98901.50;4868642;29;1159;-79
2021/10/01 04:30:47;;;;;;;;;;;;;;;21.99;31.03;98907.28;4868360;29;1276;-79
2021/10/01 04:33:23;;;;;;;;;;;;;;;21.88;31.52;98907.44;4869320;29;998;-79
2021/10/01 04:35:50;;;;;;;;;;;;;;;21.97;31.50;98910.56;4855196;29;1217;-79
2021/10/01 04:38:17;;;;;;;;;;;;;;;21.89;31.44;98902.56;4853438;29;1381;-79
2021/10/01 04:40:44;;;;;;;;;;;;;;;21.95;31.55;98906.53;4853325;29;1195;-80
2021/10/01 04:43:10;;;;;;;;;;;;;;;21.76;31.76;98908.81;4868092;29;876;-79
2021/10/01 04:45:49;;;;;;;;;;;;;;;21.84;31.77;98898.97;4883763;29;1072;-80
2021/10/01 04:48:15;;;;;;;;;;;;;;;21.94;31.66;98910.59;4868811;29;1174;-79
2021/10/01 04:50:43;;;;;;;;;;;;;;;21.78;31.62;98903.53;4868663;29;1329;-79
2021/10/01 04:53:08;;;;;;;;;;;;;;;21.72;31.61;98910.88;4868086;29;749;-79
2021/10/01 04:55:34;;;;;;;;;;;;;;;22.03;32.33;98908.06;4868559;29;1328;-80
2021/10/01 04:58:00;;;;;;;;;;;;;;;22.41;31.39;98910.75;4868719;29;956;-79
2021/10/01 05:01:04;;;;;;;;;;;;;;;22.30;31.21;98911.72;4848912;29;1134;-79
2021/10/01 05:03:48;;;;;;;;;;;;;;;21.96;31.67;98908.13;4867858;29;1906;-79
2021/10/01 05:06:52;;;;;;;;;;;;;;;21.75;31.49;98915.69;4849045;29;1231;-79
2021/10/01 05:09:36;;;;;;;;;;;;;;;21.82;31.57;98909.94;4849153;29;565;-79
2021/10/01 05:12:20;;;;;;;;;;;;;;;21.84;31.69;98912.34;4863015;29;974;-79
2021/10/01 05:15:04;;;;;;;;;;;;;;;21.90;31.58;98913.47;4867633;29;952;-79
2021/10/01 05:17:50;;;;;;;;;;;;;;;21.71;31.99;98919.78;4868710;29;671;-79
2021/10/01 05:20:54;;;;;;;;;;;;;;;21.93;31.73;98914.66;4820431;29;1152;-79
2021/10/01 05:23:35;;;;;;;;;;;;;;;21.83;31.53;98922.88;4830711;29;1915;-79
2021/10/01 05:26:00;;;;;;;;;;;;;;;21.75;31.71;98915.69;4852041;29;1123;-78
2021/10/01 05:28:26;;;;;;;;;;;;;;;21.72;31.60;98927.88;4867810;29;1194;-79
2021/10/01 05:30:51;;;;;;;;;;;;;;;21.66;31.64;98926.75;4868190;29;960;-79
2021/10/01 05:33:17;;;;;;;;;;;;;;;21.95;31.90;98924.34;4868333;29;1071;-79
2021/10/01 05:35:43;;;;;;;;;;;;;;;22.28;31.92;98919.88;4868216;29;786;-79
2021/10/01 05:38:09;;;;;;;;;;;;;;;22.52;31.25;98925.56;4867504;29;821;-79
2021/10/01 05:40:35;;;;;;;;;;;;;;;22.27;31.37;98921.06;4868319;29;695;-79
2021/10/01 05:43:00;;;;;;;;;;;;;;;22.09;31.21;98924.16;4851498;29;1444;-79
2021/10/01 05:45:26;;;;;;;;;;;;;;;21.90;31.27;98924.00;4867302;29;1974;-79
2021/10/01 05:48:12;;;;;;;;;;;;;;;21.83;31.62;98922.09;4868182;29;623;-79
2021/10/01 05:50:57;;;;;;;;;;;;;;;21.98;31.12;98925.53;4868147;29;499;-79
2021/10/01 05:56:51;;;;;;;;;;;;;;;21.75;31.57;98927.03;4838127;29;1137;-79
2021/10/01 05:59:21;;;;;;;;;;;;;;;21.84;31.82;98930.16;4818381;29;1262;-80
2021/10/01 06:01:47;;;;;;;;;;;;;;;21.75;31.84;98927.03;4849063;29;1403;-79
2021/10/01 06:04:13;;;;;;;;;;;;;;;21.75;31.94;98938.34;4867059;29;1907;-79
2021/10/01 06:06:39;;;;;;;;;;;;;;;22.02;32.35;98937.59;4866895;29;915;-79
2021/10/01 06:09:09;;;;;;;;;;;;;;;22.39;31.98;98933.09;4866647;29;826;-79
2021/10/01 06:11:35;;;;;;;;;;;;;;;22.45;31.61;98937.03;4867190;29;624;-79
2021/10/01 06:14:01;;;;;;;;;;;;;;;22.08;31.69;98938.75;4866886;29;1139;-79
2021/10/01 06:16:26;;;;;;;;;;;;;;;21.91;31.93;98939.78;4867378;29;901;-79
2021/10/01 06:18:53;;;;;;;;;;;;;;;21.94;31.83;98951.06;4867876;29;942;-79
2021/10/01 06:21:18;;;;;;;;;;;;;;;21.91;31.79;98945.44;4867902;29;680;-79
2021/10/01 06:23:44;;;;;;;;;;;;;;;21.99;31.75;98949.81;4867515;29;1990;-79
2021/10/01 06:26:09;;;;;;;;;;;;;;;22.02;31.72;98951.78;4867631;29;676;-79
2021/10/01 06:28:35;;;;;;;;;;;;;;;21.92;31.78;98949.91;4867276;29;1070;-79
2021/10/01 06:31:02;;;;;;;;;;;;;;;21.85;31.86;98948.75;4867415;29;889;-79
2021/10/01 06:33:28;;;;;;;;;;;;;;;21.82;32.03;98957.31;4866820;29;964;-79
2021/10/01 06:35:53;;;;;;;;;;;;;;;21.81;32.04;98956.50;4867229;29;502;-79
2021/10/01 06:38:19;;;;;;;;;;;;;;;21.83;31.70;98965.38;4867231;29;700;-79
2021/10/01 06:40:44;;;;;;;;;;;;;;;21.61;31.98;98958.38;4867558;29;657;-79
2021/10/01 06:43:11;;;;;;;;;;;;;;;21.79;31.84;98956.13;4867122;29;1023;-80
2021/10/01 06:45:38;;;;;;;;;;;;;;;22.09;32.78;98961.00;4866952;29;1970;-79
2021/10/01 07:20:59;;;;;;;;;;;;;;;22.06;32.15;98973.16;4867331;29;728;-79
2021/10/01 08:20:15;;;;;;;;;;;;;;;21.87;31.68;98962.50;4869470;29;933;-80
2021/10/01 08:22:40;;;;;;;;;;;;;;;21.93;31.32;98972.16;4869200;29;896;-79
2021/10/01 08:25:06;;;;;;;;;;;;;;;21.99;31.43;98967.59;4869666;29;1970;-79
2021/10/01 08:27:31;;;;;;;;;;;;;;;21.92;31.48;98958.41;4869704;29;637;-79
2021/10/01 08:29:57;;;;;;;;;;;;;;;21.92;31.63;98958.41;4868464;29;846;-79
2021/10/01 08:32:22;;;;;;;;;;;;;;;20.95;32.06;98771.88;4869504;29;656;-79
2021/10/01 08:34:49;;;;;;;;;;;;;;;22.30;32.57;98971.28;4869713;29;1053;-79
2021/10/01 08:37:14;;;;;;;;;;;;;;;22.51;32.81;98960.84;4869163;29;891;-78
2021/10/01 08:39:40;;;;;;;;;;;;;;;22.45;32.15;98956.88;4869623;29;1081;-79
2021/10/01 08:42:10;;;;;;;;;;;;;;;21.98;32.91;98956.72;4853968;29;1355;-79
2021/10/01 08:44:36;;;;;;;;;;;;;;;22.00;32.69;98960.72;4869151;29;1915;-79
2021/10/01 08:47:02;;;;;;;;;;;;;;;21.99;32.21;98964.78;4869361;29;621;-80
2021/10/01 08:49:28;;;;;;;;;;;;;;;22.05;32.17;98967.94;4868075;29;958;-79
2021/10/01 08:51:53;;;;;;;;;;;;;;;22.12;31.68;98962.19;4868854;29;840;-79
2021/10/01 08:54:19;;;;;;;;;;;;;;;22.03;32.22;98964.75;4869122;29;1084;-79
2021/10/01 08:56:44;;;;;;;;;;;;;;;22.06;31.84;98969.53;4868093;29;862;-79
2021/10/01 08:59:10;;;;;;;;;;;;;;;22.07;31.77;98965.47;4867678;29;869;-80
2021/10/01 09:01:35;;;;;;;;;;;;;;;21.96;31.89;98964.81;4868523;29;1223;-79
2021/10/01 09:04:01;;;;;;;;;;;;;;;21.87;32.19;98961.72;4868504;29;1961;-79
2021/10/01 09:06:26;;;;;;;;;;;;;;;21.93;32.02;98954.34;4868550;29;801;-80
2021/10/01 09:08:52;;;;;;;;;;;;;;;21.95;31.61;98963.22;4868908;29;956;-79
2021/10/01 09:11:19;;;;;;;;;;;;;;;22.03;31.47;98954.19;4868834;29;637;-79
2021/10/01 09:13:44;;;;;;;;;;;;;;;21.84;31.72;98960.50;4852633;29;1190;-79
2021/10/01 09:16:11;;;;;;;;;;;;;;;21.81;31.71;98956.50;4868734;29;656;-79
2021/10/01 09:18:37;;;;;;;;;;;;;;;21.88;31.66;98958.44;4868440;29;954;-79
2021/10/01 09:21:03;;;;;;;;;;;;;;;21.90;31.59;98963.69;4867417;29;830;-79
2021/10/01 09:23:29;;;;;;;;;;;;;;;21.89;31.65;98970.56;4867836;29;871;-79
2021/10/01 09:26:10;;;;;;;;;;;;;;;21.97;32.11;98966.44;4868487;29;1903;-79
2021/10/01 09:28:42;;;;;;;;;;;;;;;22.21;32.67;98965.31;4868478;29;636;-79
2021/10/01 09:31:08;;;;;;;;;;;;;;;22.30;33.06;98961.97;4867574;29;789;-80
2021/10/01 09:33:42;;;;;;;;;;;;;;;22.39;32.69;98964.28;4868365;29;867;-79
2021/10/01 09:36:08;;;;;;;;;;;;;;;22.12;32.69;98965.03;4867429;29;949;-80
2021/10/01 09:38:36;;;;;;;;;;;;;;;22.02;32.43;98963.94;4867497;29;825;-80
2021/10/01 09:41:15;;;;;;;;;;;;;;;22.05;31.99;98967.94;4867640;29;651;-79
2021/10/01 09:43:40;;;;;;;;;;;;;;;22.07;31.65;98965.47;4868122;29;1978;-79
2021/10/01 09:46:11;;;;;;;;;;;;;;;21.96;31.77;98961.97;4868232;29;672;-80
2021/10/01 09:48:37;;;;;;;;;;;;;;;21.82;31.89;98972.28;4867940;29;1096;-79
2021/10/01 09:51:06;;;;;;;;;;;;;;;21.88;32.00;98974.66;4867095;29;841;-80
2021/10/01 09:53:40;;;;;;;;;;;;;;;21.85;32.20;98976.28;4868036;29;1096;-79
2021/10/01 09:56:16;;;;;;;;;;;;;;;22.05;31.66;98982.09;4867076;29;880;-79
2021/10/01 09:58:41;;;;;;;;;;;;;;;21.88;31.72;98974.66;4868145;29;712;-79
2021/10/01 10:01:06;;;;;;;;;;;;;;;21.79;31.96;98973.13;4867284;29;700;-80
2021/10/01 10:03:32;;;;;;;;;;;;;;;22.10;32.71;98970.31;4867715;29;968;-79
2021/10/01 10:06:02;;;;;;;;;;;;;;;22.30;32.77;98979.78;4867610;29;2021;-80
2021/10/01 10:08:27;;;;;;;;;;;;;;;22.51;32.50;98984.34;4866990;29;852;-79
2021/10/01 10:10:55;;;;;;;;;;;;;;;22.19;32.55;98973.44;4867243;29;672;-79
2021/10/01 10:13:34;;;;;;;;;;;;;;;22.01;32.34;98967.19;4869385;29;1314;-79
2021/10/01 10:16:07;;;;;;;;;;;;;;;22.02;32.10;98965.94;4886266;29;1027;-79
2021/10/01 10:18:32;;;;;;;;;;;;;;;22.00;31.97;98965.56;4886340;29;604;-79
2021/10/01 10:20:58;;;;;;;;;;;;;;;21.93;31.83;98960.00;4885969;29;972;-79
2021/10/01 10:23:23;;;;;;;;;;;;;;;21.83;32.01;98962.53;4885881;29;932;-80
2021/10/01 10:25:48;;;;;;;;;;;;;;;22.03;32.20;98964.75;4886140;29;1972;-79
2021/10/01 10:28:14;;;;;;;;;;;;;;;22.03;31.94;98953.41;4886171;29;644;-79
2021/10/01 10:30:40;;;;;;;;;;;;;;;22.04;31.89;98957.84;4900621;29;753;-80
2021/10/01 10:33:25;;;;;;;;;;;;;;;21.90;32.07;98955.19;4900630;29;827;-79
2021/10/01 10:35:51;;;;;;;;;;;;;;;21.86;31.94;98960.88;4882207;29;1025;-79
2021/10/01 10:38:32;;;;;;;;;;;;;;;21.91;31.83;98965.28;4885587;29;892;-79
2021/10/01 10:41:18;;;;;;;;;;;;;;;21.88;31.54;98952.78;4886073;29;692;-80
2021/10/01 10:43:46;;;;;;;;;;;;;;;21.90;31.65;98949.50;4885863;29;1974;-79
2021/10/01 10:46:32;;;;;;;;;;;;;;;22.08;31.16;98952.94;4900631;29;870;-80
2021/10/01 10:49:20;;;;;;;;;;;;;;;22.00;31.45;98951.41;4885893;29;1093;-79
2021/10/01 10:52:21;;;;;;;;;;;;;;;21.94;31.55;98944.59;4885834;29;941;-79
2021/10/01 10:54:50;;;;;;;;;;;;;;;21.78;31.41;98951.69;4865595;29;1206;-79
2021/10/01 10:57:16;;;;;;;;;;;;;;;21.88;31.47;98951.97;4878041;29;871;-79
2021/10/01 10:59:44;;;;;;;;;;;;;;;21.85;31.26;98947.94;4885888;29;688;-79
2021/10/01 11:02:17;;;;;;;;;;;;;;;21.81;31.75;98947.19;4900756;29;604;-80
2021/10/01 11:04:42;;;;;;;;;;;;;;;22.21;31.97;98953.19;4885797;29;1999;-79
2021/10/01 11:07:08;;;;;;;;;;;;;;;22.50;32.27;98948.69;4900346;29;1209;-79
2021/10/01 11:09:34;;;;;;;;;;;;;;;22.50;32.04;98942.22;4885524;29;899;-79
2021/10/01 11:12:00;;;;;;;;;;;;;;;22.05;32.39;98940.41;4900300;29;905;-79
2021/10/01 11:14:27;;;;;;;;;;;;;;;22.03;32.29;98937.19;4900420;29;1200;-79
2021/10/01 11:16:52;;;;;;;;;;;;;;;22.00;31.94;98928.72;4900525;29;676;-79
2021/10/01 11:19:34;;;;;;;;;;;;;;;22.04;31.77;98926.66;4885948;29;695;-79
2021/10/01 11:21:59;;;;;;;;;;;;;;;22.05;31.26;98931.09;4885352;29;813;-79
2021/10/01 11:24:25;;;;;;;;;;;;;;;21.93;31.71;98920.34;4903865;29;1976;-79
2021/10/01 11:26:57;;;;;;;;;;;;;;;21.96;31.85;98925.94;4889398;29;664;-79
2021/10/01 11:29:22;;;;;;;;;;;;;;;21.83;31.63;98922.88;4903865;29;850;-79
2021/10/01 11:31:48;;;;;;;;;;;;;;;21.83;31.60;98928.56;4889399;29;684;-79
2021/10/01 11:34:14;;;;;;;;;;;;;;;21.87;31.62;98933.38;4903742;29;879;-79
2021/10/01 11:36:39;;;;;;;;;;;;;;;21.83;31.50;98922.09;4903260;29;961;-79
2021/10/01 11:39:06;;;;;;;;;;;;;;;21.77;31.43;98924.59;4903462;29;939;-79
2021/10/01 11:41:31;;;;;;;;;;;;;;;21.63;31.85;98930.41;4888952;29;946;-79
2021/10/01 11:43:57;;;;;;;;;;;;;;;22.10;32.29;98930.63;4888910;29;1972;-79
2021/10/01 11:46:26;;;;;;;;;;;;;;;22.39;31.98;98927.41;4903412;29;844;-79
2021/10/01 11:48:51;;;;;;;;;;;;;;;22.55;31.80;98934.03;4888911;29;696;-79
2021/10/01 11:51:17;;;;;;;;;;;;;;;22.28;31.72;98927.56;4888634;29;869;-80
2021/10/01 11:53:42;;;;;;;;;;;;;;;21.97;32.08;98935.28;4888555;29;966;-79
2021/10/01 11:56:08;;;;;;;;;;;;;;;21.89;32.11;98925.25;4888806;29;1032;-79
2021/10/01 11:58:34;;;;;;;;;;;;;;;21.93;31.77;98923.97;4888632;29;781;-79
2021/10/01 12:01:09;;;;;;;;;;;;;;;21.92;31.78;98919.53;4888770;29;695;-79
2021/10/01 12:03:35;;;;;;;;;;;;;;;21.79;31.78;98922.13;4888650;29;692;-80
2021/10/01 12:06:00;;;;;;;;;;;;;;;21.90;31.88;98921.19;4888171;29;1903;-79
2021/10/01 12:08:29;;;;;;;;;;;;;;;21.91;31.70;98928.44;4888201;29;851;-79
2021/10/01 12:10:55;;;;;;;;;;;;;;;21.86;31.46;98921.22;4888451;29;1031;-79
2021/10/01 12:13:22;;;;;;;;;;;;;;;21.80;31.61;98929.38;4888432;29;676;-79
2021/10/01 12:15:48;;;;;;;;;;;;;;;21.89;31.38;98916.75;4888479;29;1105;-79
2021/10/01 12:18:33;;;;;;;;;;;;;;;21.74;31.64;98914.09;4903624;29;976;-79
2021/10/01 12:21:03;;;;;;;;;;;;;;;21.84;31.42;98906.69;4888155;29;975;-79
2021/10/01 12:23:35;;;;;;;;;;;;;;;22.00;31.20;98911.72;4902412;29;935;-80
2021/10/01 12:26:14;;;;;;;;;;;;;;;21.84;31.55;98913.16;4888219;29;1906;-80
2021/10/01 12:28:39;;;;;;;;;;;;;;;22.24;31.93;98913.44;4888334;29;679;-79
2021/10/01 12:31:05;;;;;;;;;;;;;;;22.45;31.94;98908.69;4888286;29;620;-79
2021/10/01 12:33:30;;;;;;;;;;;;;;;22.50;31.69;98902.53;4888387;29;612;-79
2021/10/01 12:35:56;;;;;;;;;;;;;;;22.14;32.02;98897.41;4901907;29;937;-79
2021/10/01 12:38:21;;;;;;;;;;;;;;;22.15;31.86;98903.88;4887675;29;884;-79
2021/10/01 12:41:06;;;;;;;;;;;;;;;22.10;31.42;98902.28;4887917;29;932;-79
2021/10/01 12:44:01;;;;;;;;;;;;;;;21.93;31.84;98906.19;4887933;29;724;-79
2021/10/01 12:46:35;;;;;;;;;;;;;;;21.94;31.58;98904.94;4883514;29;1131;-80
2021/10/01 12:49:17;;;;;;;;;;;;;;;21.90;31.68;98898.50;4887883;29;700;-79
2021/10/01 12:51:43;;;;;;;;;;;;;;;21.96;31.41;98905.31;4901969;29;828;-79
2021/10/01 12:54:28;;;;;;;;;;;;;;;21.98;31.55;98905.69;4902559;29;1303;-80
2021/10/01 12:57:12;;;;;;;;;;;;;;;21.89;31.33;98900.53;4902267;29;809;-80
2021/10/01 12:59:56;;;;;;;;;;;;;;;21.81;31.70;98911.19;4887866;29;671;-80
2021/10/01 13:02:26;;;;;;;;;;;;;;;21.70;31.89;98907.66;4887626;29;628;-79
2021/10/01 13:04:55;;;;;;;;;;;;;;;21.72;31.46;98910.88;4887479;29;1961;-79
2021/10/01 13:07:25;;;;;;;;;;;;;;;21.96;31.44;98905.31;4901735;29;994;-79
2021/10/01 13:09:51;;;;;;;;;;;;;;;21.84;31.33;98901.81;4901724;29;902;-79
2021/10/01 13:12:49;;;;;;;;;;;;;;;21.90;31.20;98907.00;4887548;29;1090;-80
2021/10/01 13:15:15;;;;;;;;;;;;;;;22.03;31.99;98902.38;4887856;29;1058;-79
2021/10/01 13:17:41;;;;;;;;;;;;;;;22.31;32.13;98909.69;4887345;29;620;-79
2021/10/01 13:20:08;;;;;;;;;;;;;;;22.53;32.00;98901.66;4902094;29;656;-80
2021/10/01 13:22:57;;;;;;;;;;;;;;;22.34;31.86;98909.66;4887000;29;951;-80
2021/10/01 13:25:23;;;;;;;;;;;;;;;21.97;32.05;98909.75;4886760;29;1973;-79
2021/10/01 13:27:49;;;;;;;;;;;;;;;21.98;31.64;98905.69;4901827;29;868;-80
2021/10/01 13:30:15;;;;;;;;;;;;;;;21.98;31.86;98906.50;4901499;29;907;-80
2021/10/01 13:32:41;;;;;;;;;;;;;;;21.88;32.01;98906.66;4902004;29;668;-79
2021/10/01 13:35:06;;;;;;;;;;;;;;;21.82;31.74;98904.28;4886957;29;479;-80
2021/10/01 13:37:32;;;;;;;;;;;;;;;21.73;32.11;98906.81;4886489;29;930;-79
2021/10/01 13:39:59;;;;;;;;;;;;;;;21.84;31.80;98907.47;4886614;29;917;-80
2021/10/01 13:42:27;;;;;;;;;;;;;;;21.75;31.73;98910.03;4887073;29;1015;-80
2021/10/01 13:44:53;;;;;;;;;;;;;;;21.81;31.67;98905.50;4887094;29;1907;-80
2021/10/01 13:47:18;;;;;;;;;;;;;;;21.84;31.61;98907.47;4886801;29;675;-79
2021/10/01 13:49:44;;;;;;;;;;;;;;;21.75;31.57;98898.69;4886744;29;679;-79
2021/10/01 13:52:09;;;;;;;;;;;;;;;21.72;31.54;98899.56;4886245;29;960;-79
2021/10/01 13:54:35;;;;;;;;;;;;;;;21.73;31.60;98889.81;4886567;29;946;-79
2021/10/01 13:57:00;;;;;;;;;;;;;;;22.09;32.03;98901.47;4886572;29;830;-80
2021/10/01 13:59:25;;;;;;;;;;;;;;;22.40;31.70;98894.97;4886559;29;891;-80
2021/10/01 14:01:51;;;;;;;;;;;;;;;22.53;31.80;98901.66;4886590;29;624;-79
2021/10/01 14:04:16;;;;;;;;;;;;;;;22.17;31.96;98902.19;4886456;29;1903;-79
2021/10/01 14:06:42;;;;;;;;;;;;;;;21.97;32.09;98893.56;4886206;29;948;-79
2021/10/01 14:09:07;;;;;;;;;;;;;;;21.83;32.24;98897.38;4886149;29;898;-80
2021/10/01 14:11:32;;;;;;;;;;;;;;;21.97;31.55;98893.56;4886352;29;936;-79
2021/10/01 14:13:59;;;;;;;;;;;;;;;21.96;31.60;98891.94;4886270;29;1055;-80
2021/10/01 14:16:24;;;;;;;;;;;;;;;21.84;31.45;98889.69;4886454;29;668;-79
2021/10/01 14:18:50;;;;;;;;;;;;;;;21.98;31.47;98894.38;4886425;29;665;-79
2021/10/01 14:21:15;;;;;;;;;;;;;;;22.01;31.18;98882.16;4885866;29;1082;-79
2021/10/01 14:23:41;;;;;;;;;;;;;;;21.91;31.34;98888.78;4885907;29;905;-79
2021/10/01 14:26:06;;;;;;;;;;;;;;;21.95;31.13;98883.88;4886256;29;1972;-79
2021/10/01 14:28:31;;;;;;;;;;;;;;;21.79;31.48;98888.13;4886176;29;692;-79
2021/10/01 14:30:57;;;;;;;;;;;;;;;21.76;31.24;98883.31;4886171;29;732;-80
2021/10/01 14:33:22;;;;;;;;;;;;;;;21.72;31.39;98881.75;4886163;29;704;-79
2021/10/01 14:35:48;;;;;;;;;;;;;;;21.78;31.63;98872.34;4885840;29;1059;-79
2021/10/01 14:38:14;;;;;;;;;;;;;;;22.13;31.97;98873.13;4885834;29;859;-79
2021/10/01 14:40:40;;;;;;;;;;;;;;;22.41;31.77;98876.72;4900552;29;989;-79
2021/10/01 14:43:05;;;;;;;;;;;;;;;22.47;31.83;98875.81;4900563;29;803;-79
2021/10/01 14:45:31;;;;;;;;;;;;;;;22.16;32.01;98877.13;4885948;29;1899;-80